sensor_id;sensor_type;location;lat;lon;timestamp;pressure;altitude;pressure_sealevel;temperature;humidity
15670;BME280;18524;45.190;5.732;2023-05-17T00:02:38;98946.16;;;14.44;82.45
15670;BME280;18524;45.190;5.732;2023-05-17T00:07:29;98946.28;;;14.42;80.07
15670;BME280;18524;45.190;5.732;2023-05-17T00:12:19;98946.28;;;14.42;81.25
15670;BME280;18524;45.190;5.732;2023-05-17T00:17:10;98935.97;;;14.31;80.85
15670;BME280;18524;45.190;5.732;2023-05-17T00:22:00;98940.72;;;14.45;77.64
15670;BME280;18524;45.190;5.732;2023-05-17T00:26:50;98942.28;;;14.38;79.30
15670;BME280;18524;45.190;5.732;2023-05-17T00:31:41;98943.56;;;14.34;79.18
15670;BME280;18524;45.190;5.732;2023-05-17T00:36:31;98942.22;;;14.30;78.69
15670;BME280;18524;45.190;5.732;2023-05-17T00:41:22;98937.94;;;14.29;77.74
15670;BME280;18524;45.190;5.732;2023-05-17T00:46:12;98935.34;;;14.37;78.65
15670;BME280;18524;45.190;5.732;2023-05-17T00:51:03;98932.97;;;14.26;77.80
15670;BME280;18524;45.190;5.732;2023-05-17T00:55:54;98927.31;;;14.21;78.98
15670;BME280;18524;45.190;5.732;2023-05-17T01:00:45;98924.16;;;14.17;78.09
15670;BME280;18524;45.190;5.732;2023-05-17T01:05:36;98930.09;;;14.19;78.81
15670;BME280;18524;45.190;5.732;2023-05-17T01:10:39;98925.56;;;14.12;81.52
15670;BME280;18524;45.190;5.732;2023-05-17T01:15:36;98936.81;;;14.14;79.17
15670;BME280;18524;45.190;5.732;2023-05-17T01:20:31;98935.84;;;14.15;78.63
15670;BME280;18524;45.190;5.732;2023-05-17T01:30:18;98932.13;;;14.07;79.68
15670;BME280;18524;45.190;5.732;2023-05-17T01:35:10;98933.63;;;14.10;80.69
15670;BME280;18524;45.190;5.732;2023-05-17T01:40:01;98931.00;;;14.10;80.21
15670;BME280;18524;45.190;5.732;2023-05-17T01:49:58;98926.69;;;14.09;80.40
15670;BME280;18524;45.190;5.732;2023-05-17T01:54:56;98924.81;;;14.01;81.44
15670;BME280;18524;45.190;5.732;2023-05-17T01:59:51;98932.13;;;14.07;79.80
15670;BME280;18524;45.190;5.732;2023-05-17T02:04:42;98939.50;;;14.04;79.92
15670;BME280;18524;45.190;5.732;2023-05-17T02:09:32;98938.69;;;14.03;81.12
15670;BME280;18524;45.190;5.732;2023-05-17T02:14:22;98923.16;;;14.00;80.97
15670;BME280;18524;45.190;5.732;2023-05-17T02:19:13;98930.25;;;14.00;81.13
15670;BME280;18524;45.190;5.732;2023-05-17T02:24:04;98919.69;;;14.00;79.03
15670;BME280;18524;45.190;5.732;2023-05-17T02:28:55;98918.88;;;13.99;80.71
15670;BME280;18524;45.190;5.732;2023-05-17T02:33:45;98924.97;;;14.00;79.59
15670;BME280;18524;45.190;5.732;2023-05-17T02:38:36;98923.47;;;13.97;80.82
15670;BME280;18524;45.190;5.732;2023-05-17T02:43:26;98927.75;;;13.98;80.19
15670;BME280;18524;45.190;5.732;2023-05-17T02:48:16;98930.03;;;13.93;79.71
15670;BME280;18524;45.190;5.732;2023-05-17T02:53:07;98932.81;;;13.92;80.98
15670;BME280;18524;45.190;5.732;2023-05-17T02:57:57;98930.84;;;13.94;80.47
15670;BME280;18524;45.190;5.732;2023-05-17T03:02:47;98922.34;;;14.00;79.39
15670;BME280;18524;45.190;5.732;2023-05-17T03:07:38;98920.47;;;13.92;79.79
15670;BME280;18524;45.190;5.732;2023-05-17T03:12:28;98929.03;;;13.94;79.31
15670;BME280;18524;45.190;5.732;2023-05-17T03:17:18;98924.22;;;13.90;79.28
15670;BME280;18524;45.190;5.732;2023-05-17T03:22:09;98932.28;;;13.88;79.00
15670;BME280;18524;45.190;5.732;2023-05-17T03:26:59;98929.94;;;13.85;80.53
15670;BME280;18524;45.190;5.732;2023-05-17T03:31:50;98923.16;;;13.83;79.55
15670;BME280;18524;45.190;5.732;2023-05-17T03:36:40;98927.31;;;13.85;80.66
15670;BME280;18524;45.190;5.732;2023-05-17T03:41:31;98930.94;;;13.84;80.15
15670;BME280;18524;45.190;5.732;2023-05-17T03:46:21;98941.41;;;13.76;80.63
15670;BME280;18524;45.190;5.732;2023-05-17T03:51:11;98942.34;;;13.75;83.16
15670;BME280;18524;45.190;5.732;2023-05-17T03:56:02;98947.34;;;13.78;80.77
15670;BME280;18524;45.190;5.732;2023-05-17T04:00:52;98954.94;;;13.81;81.95
15670;BME280;18524;45.190;5.732;2023-05-17T04:05:43;98956.91;;;13.79;80.74
15670;BME280;18524;45.190;5.732;2023-05-17T04:10:35;98950.84;;;13.69;81.11
15670;BME280;18524;45.190;5.732;2023-05-17T04:15:26;98952.13;;;13.65;81.89
15670;BME280;18524;45.190;5.732;2023-05-17T04:20:16;98952.72;;;13.59;82.84
15670;BME280;18524;45.190;5.732;2023-05-17T04:25:06;98965.81;;;13.68;81.25
15670;BME280;18524;45.190;5.732;2023-05-17T04:29:57;98968.91;;;13.64;81.36
15670;BME280;18524;45.190;5.732;2023-05-17T04:34:47;98966.94;;;13.66;81.54
15670;BME280;18524;45.190;5.732;2023-05-17T04:39:38;98976.88;;;13.54;83.23
15670;BME280;18524;45.190;5.732;2023-05-17T04:44:29;98979.31;;;13.65;82.41
15670;BME280;18524;45.190;5.732;2023-05-17T04:49:19;98988.38;;;13.53;84.16
15670;BME280;18524;45.190;5.732;2023-05-17T04:54:09;98984.09;;;13.52;83.18
15670;BME280;18524;45.190;5.732;2023-05-17T04:59:00;98993.66;;;13.53;84.63
15670;BME280;18524;45.190;5.732;2023-05-17T05:03:51;98993.94;;;13.50;85.53
15670;BME280;18524;45.190;5.732;2023-05-17T05:08:42;99002.16;;;13.47;86.15
15670;BME280;18524;45.190;5.732;2023-05-17T05:13:32;99003.47;;;13.61;83.19
15670;BME280;18524;45.190;5.732;2023-05-17T05:18:23;99003.50;;;13.51;84.83
15670;BME280;18524;45.190;5.732;2023-05-17T05:23:13;99016.44;;;13.44;84.60
15670;BME280;18524;45.190;5.732;2023-05-17T05:28:04;99016.94;;;13.58;83.82
15670;BME280;18524;45.190;5.732;2023-05-17T05:32:54;99020.06;;;13.43;85.10
15670;BME280;18524;45.190;5.732;2023-05-17T05:37:45;99022.00;;;13.32;85.93
15670;BME280;18524;45.190;5.732;2023-05-17T05:42:35;99021.31;;;13.30;86.93
15670;BME280;18524;45.190;5.732;2023-05-17T05:47:25;99026.59;;;13.39;86.42
15670;BME280;18524;45.190;5.732;2023-05-17T05:52:16;99033.94;;;13.26;85.58
15670;BME280;18524;45.190;5.732;2023-05-17T05:57:06;99044.50;;;13.26;87.56
15670;BME280;18524;45.190;5.732;2023-05-17T06:01:57;99039.22;;;13.26;85.80
15670;BME280;18524;45.190;5.732;2023-05-17T06:06:47;99047.41;;;13.23;87.64
15670;BME280;18524;45.190;5.732;2023-05-17T06:11:38;99056.56;;;13.09;88.54
15670;BME280;18524;45.190;5.732;2023-05-17T06:16:28;99059.19;;;13.00;86.89
15670;BME280;18524;45.190;5.732;2023-05-17T06:21:19;99064.34;;;13.01;87.97
15670;BME280;18524;45.190;5.732;2023-05-17T06:26:09;99070.16;;;13.05;86.37
15670;BME280;18524;45.190;5.732;2023-05-17T06:31:00;99073.06;;;13.02;87.02
15670;BME280;18524;45.190;5.732;2023-05-17T06:35:50;99078.88;;;12.96;87.86
15670;BME280;18524;45.190;5.732;2023-05-17T06:40:41;99078.44;;;13.00;86.61
15670;BME280;18524;45.190;5.732;2023-05-17T06:45:31;99081.22;;;12.99;89.24
15670;BME280;18524;45.190;5.732;2023-05-17T06:50:21;99090.66;;;13.01;87.57
15670;BME280;18524;45.190;5.732;2023-05-17T06:55:12;99092.19;;;13.04;86.22
15670;BME280;18524;45.190;5.732;2023-05-17T07:00:02;99101.47;;;13.08;87.00
15670;BME280;18524;45.190;5.732;2023-05-17T07:04:55;99105.75;;;13.09;85.91
15670;BME280;18524;45.190;5.732;2023-05-17T07:09:46;99101.47;;;13.08;87.82
15670;BME280;18524;45.190;5.732;2023-05-17T07:14:36;99107.28;;;13.11;86.59
15670;BME280;18524;45.190;5.732;2023-05-17T07:19:26;99105.50;;;13.22;83.98
15670;BME280;18524;45.190;5.732;2023-05-17T07:24:17;99115.59;;;13.17;85.81
15670;BME280;18524;45.190;5.732;2023-05-17T07:29:07;99119.75;;;13.29;84.24
15670;BME280;18524;45.190;5.732;2023-05-17T07:33:58;99128.06;;;13.24;84.38
15670;BME280;18524;45.190;5.732;2023-05-17T07:38:48;99125.28;;;13.16;85.17
15670;BME280;18524;45.190;5.732;2023-05-17T07:43:38;99127.78;;;13.08;85.13
15670;BME280;18524;45.190;5.732;2023-05-17T07:48:29;99123.22;;;13.10;87.47
15670;BME280;18524;45.190;5.732;2023-05-17T07:53:19;99117.97;;;13.10;85.67
15670;BME280;18524;45.190;5.732;2023-05-17T07:58:10;99131.97;;;13.01;86.21
15670;BME280;18524;45.190;5.732;2023-05-17T08:03:03;99130.16;;;13.11;85.82
15670;BME280;18524;45.190;5.732;2023-05-17T08:07:54;99131.25;;;13.08;85.91
15670;BME280;18524;45.190;5.732;2023-05-17T08:12:44;99135.41;;;13.11;86.26
15670;BME280;18524;45.190;5.732;2023-05-17T08:17:35;99137.91;;;13.22;85.51
15670;BME280;18524;45.190;5.732;2023-05-17T08:22:25;99145.00;;;13.22;85.95
15670;BME280;18524;45.190;5.732;2023-05-17T08:27:16;99147.31;;;13.34;85.46
15670;BME280;18524;45.190;5.732;2023-05-17T08:32:06;99151.09;;;13.41;83.55
15670;BME280;18524;45.190;5.732;2023-05-17T08:36:57;99150.09;;;13.42;84.69
15670;BME280;18524;45.190;5.732;2023-05-17T08:41:47;99147.31;;;13.54;84.43
15670;BME280;18524;45.190;5.732;2023-05-17T08:46:39;99156.75;;;13.47;84.56
15670;BME280;18524;45.190;5.732;2023-05-17T08:51:30;99157.84;;;13.54;85.03
15670;BME280;18524;45.190;5.732;2023-05-17T08:56:22;99152.84;;;13.51;85.98
15670;BME280;18524;45.190;5.732;2023-05-17T09:01:13;99152.56;;;13.54;85.62
15670;BME280;18524;45.190;5.732;2023-05-17T09:06:03;99175.16;;;13.66;83.98
15670;BME280;18524;45.190;5.732;2023-05-17T09:10:55;99167.13;;;13.58;85.52
15670;BME280;18524;45.190;5.732;2023-05-17T09:15:48;99160.59;;;13.62;85.46
15670;BME280;18524;45.190;5.732;2023-05-17T09:20:39;99169.88;;;13.66;85.27
15670;BME280;18524;45.190;5.732;2023-05-17T09:25:30;99167.38;;;13.64;84.06
15670;BME280;18524;45.190;5.732;2023-05-17T09:30:30;99169.06;;;13.56;85.92
15670;BME280;18524;45.190;5.732;2023-05-17T09:35:30;99173.63;;;13.63;85.99
15670;BME280;18524;45.190;5.732;2023-05-17T09:40:22;99183.06;;;13.66;86.39
15670;BME280;18524;45.190;5.732;2023-05-17T09:45:20;99187.06;;;13.70;86.59
15670;BME280;18524;45.190;5.732;2023-05-17T09:50:17;99188.44;;;13.74;85.14
15670;BME280;18524;45.190;5.732;2023-05-17T09:55:08;99194.97;;;13.70;85.30
15670;BME280;18524;45.190;5.732;2023-05-17T10:00:00;99186.09;;;13.71;86.35
15670;BME280;18524;45.190;5.732;2023-05-17T10:04:55;99199.69;;;13.76;86.56
15670;BME280;18524;45.190;5.732;2023-05-17T10:09:46;99210.91;;;13.88;85.18
15670;BME280;18524;45.190;5.732;2023-05-17T10:14:38;99203.94;;;13.96;85.86
15670;BME280;18524;45.190;5.732;2023-05-17T10:19:29;99200.47;;;13.96;85.08
15670;BME280;18524;45.190;5.732;2023-05-17T10:24:20;99203.59;;;14.09;84.70
15670;BME280;18524;45.190;5.732;2023-05-17T10:29:10;99192.91;;;14.11;84.91
15670;BME280;18524;45.190;5.732;2023-05-17T10:34:03;99193.88;;;14.09;84.30
15670;BME280;18524;45.190;5.732;2023-05-17T10:38:54;99196.94;;;14.05;84.60
15670;BME280;18524;45.190;5.732;2023-05-17T10:43:46;99181.81;;;14.17;83.01
15670;BME280;18524;45.190;5.732;2023-05-17T10:48:36;99205.63;;;14.25;82.79
15670;BME280;18524;45.190;5.732;2023-05-17T10:53:28;99201.63;;;14.21;83.29
15670;BME280;18524;45.190;5.732;2023-05-17T10:58:19;99195.97;;;14.16;82.58
15670;BME280;18524;45.190;5.732;2023-05-17T11:03:17;99194.56;;;14.21;83.24
15670;BME280;18524;45.190;5.732;2023-05-17T11:08:15;99204.47;;;14.37;83.18
15670;BME280;18524;45.190;5.732;2023-05-17T11:13:22;99202.94;;;14.34;80.66
15670;BME280;18524;45.190;5.732;2023-05-17T11:18:14;99199.72;;;14.40;80.72
15670;BME280;18524;45.190;5.732;2023-05-17T11:23:05;99203.63;;;14.36;81.73
15670;BME280;18524;45.190;5.732;2023-05-17T11:27:57;99204.06;;;14.32;82.87
15670;BME280;18524;45.190;5.732;2023-05-17T11:32:51;99203.09;;;14.33;83.61
15670;BME280;18524;45.190;5.732;2023-05-17T11:37:43;99200.69;;;14.49;82.08
15670;BME280;18524;45.190;5.732;2023-05-17T11:42:34;99201.81;;;14.47;83.03
15670;BME280;18524;45.190;5.732;2023-05-17T11:47:28;99188.72;;;14.55;82.59
15670;BME280;18524;45.190;5.732;2023-05-17T11:52:19;99186.25;;;14.53;81.92
15670;BME280;18524;45.190;5.732;2023-05-17T11:57:11;99183.44;;;14.55;83.21
15670;BME280;18524;45.190;5.732;2023-05-17T12:02:04;99193.25;;;14.62;83.03
15670;BME280;18524;45.190;5.732;2023-05-17T12:06:56;99187.25;;;14.70;81.16
15670;BME280;18524;45.190;5.732;2023-05-17T12:11:47;99182.63;;;14.72;82.02
15670;BME280;18524;45.190;5.732;2023-05-17T12:16:40;99189.13;;;14.78;81.50
15670;BME280;18524;45.190;5.732;2023-05-17T12:21:32;99186.19;;;14.81;81.50
15670;BME280;18524;45.190;5.732;2023-05-17T12:26:23;99178.75;;;14.94;80.52
15670;BME280;18524;45.190;5.732;2023-05-17T12:31:16;99171.03;;;15.00;80.72
15670;BME280;18524;45.190;5.732;2023-05-17T12:36:09;99170.53;;;14.97;82.18
15670;BME280;18524;45.190;5.732;2023-05-17T12:41:00;99178.00;;;15.01;82.11
15670;BME280;18524;45.190;5.732;2023-05-17T12:45:52;99165.91;;;14.99;82.49
15670;BME280;18524;45.190;5.732;2023-05-17T12:50:42;99164.31;;;15.06;82.41
15670;BME280;18524;45.190;5.732;2023-05-17T12:55:36;99167.03;;;15.14;81.07
15670;BME280;18524;45.190;5.732;2023-05-17T13:00:26;99161.44;;;15.17;80.31
15670;BME280;18524;45.190;5.732;2023-05-17T13:05:18;99167.81;;;15.24;81.14
15670;BME280;18524;45.190;5.732;2023-05-17T13:10:25;99164.59;;;15.21;81.49
15670;BME280;18524;45.190;5.732;2023-05-17T13:15:16;99169.16;;;15.28;82.43
15670;BME280;18524;45.190;5.732;2023-05-17T13:20:06;99160.59;;;15.35;82.14
15670;BME280;18524;45.190;5.732;2023-05-17T13:24:57;99149.22;;;15.34;83.26
15670;BME280;18524;45.190;5.732;2023-05-17T13:29:47;99158.69;;;15.45;81.55
15670;BME280;18524;45.190;5.732;2023-05-17T13:34:38;99163.09;;;15.36;82.33
15670;BME280;18524;45.190;5.732;2023-05-17T13:39:29;99160.41;;;15.28;83.09
15670;BME280;18524;45.190;5.732;2023-05-17T13:44:20;99155.41;;;15.25;81.94
15670;BME280;18524;45.190;5.732;2023-05-17T13:49:10;99153.47;;;15.27;82.68
15670;BME280;18524;45.190;5.732;2023-05-17T13:54:02;99155.94;;;15.28;83.65
15670;BME280;18524;45.190;5.732;2023-05-17T13:58:53;99153.81;;;15.32;84.91
15670;BME280;18524;45.190;5.732;2023-05-17T14:03:44;99144.59;;;15.36;85.18
15670;BME280;18524;45.190;5.732;2023-05-17T14:08:34;99148.59;;;15.40;82.55
15670;BME280;18524;45.190;5.732;2023-05-17T14:13:25;99149.72;;;15.38;83.16
15670;BME280;18524;45.190;5.732;2023-05-17T14:18:16;99145.94;;;15.40;82.22
15670;BME280;18524;45.190;5.732;2023-05-17T14:23:06;99137.72;;;15.43;81.82
15670;BME280;18524;45.190;5.732;2023-05-17T14:27:57;99132.94;;;15.47;80.85
15670;BME280;18524;45.190;5.732;2023-05-17T14:32:47;99130.97;;;15.49;81.65
15670;BME280;18524;45.190;5.732;2023-05-17T14:37:38;99131.66;;;15.51;80.53
15670;BME280;18524;45.190;5.732;2023-05-17T14:42:28;99134.28;;;15.51;80.41
15670;BME280;18524;45.190;5.732;2023-05-17T14:47:19;99123.88;;;15.49;82.52
15670;BME280;18524;45.190;5.732;2023-05-17T14:52:13;99125.88;;;15.55;84.41
15670;BME280;18524;45.190;5.732;2023-05-17T14:57:03;99134.66;;;15.56;83.85
15670;BME280;18524;45.190;5.732;2023-05-17T15:01:54;99128.09;;;15.60;84.65
15670;BME280;18524;45.190;5.732;2023-05-17T15:06:45;99127.34;;;15.50;86.44
15670;BME280;18524;45.190;5.732;2023-05-17T15:11:35;99120.72;;;15.46;87.80
15670;BME280;18524;45.190;5.732;2023-05-17T15:16:26;99134.41;;;15.41;87.17
15670;BME280;18524;45.190;5.732;2023-05-17T15:21:16;99134.09;;;15.44;87.61
15670;BME280;18524;45.190;5.732;2023-05-17T15:26:07;99134.84;;;15.37;87.22
15670;BME280;18524;45.190;5.732;2023-05-17T15:31:02;99142.47;;;15.40;89.54
15670;BME280;18524;45.190;5.732;2023-05-17T15:35:55;99142.47;;;15.40;91.82
15670;BME280;18524;45.190;5.732;2023-05-17T15:40:45;99143.41;;;15.30;91.90
15670;BME280;18524;45.190;5.732;2023-05-17T15:45:36;99145.13;;;15.40;93.54
15670;BME280;18524;45.190;5.732;2023-05-17T15:50:26;99141.19;;;15.44;94.90
15670;BME280;18524;45.190;5.732;2023-05-17T15:55:17;99147.41;;;15.35;92.69
15670;BME280;18524;45.190;5.732;2023-05-17T16:00:08;99142.13;;;15.35;93.48
15670;BME280;18524;45.190;5.732;2023-05-17T16:04:59;99148.22;;;15.35;93.07
15670;BME280;18524;45.190;5.732;2023-05-17T16:09:49;99143.56;;;15.29;93.17
15670;BME280;18524;45.190;5.732;2023-05-17T16:14:40;99142.34;;;15.23;93.06
15670;BME280;18524;45.190;5.732;2023-05-17T16:19:30;99145.44;;;15.19;93.50
15670;BME280;18524;45.190;5.732;2023-05-17T16:24:22;99157.00;;;15.18;93.97
15670;BME280;18524;45.190;5.732;2023-05-17T16:29:13;99152.31;;;15.12;93.37
15670;BME280;18524;45.190;5.732;2023-05-17T16:34:05;99150.88;;;15.17;94.61
15670;BME280;18524;45.190;5.732;2023-05-17T16:38:56;99147.88;;;15.12;92.17
15670;BME280;18524;45.190;5.732;2023-05-17T16:43:46;99142.22;;;15.07;93.93
15670;BME280;18524;45.190;5.732;2023-05-17T16:48:37;99136.63;;;15.10;93.70
15670;BME280;18524;45.190;5.732;2023-05-17T16:53:27;99148.09;;;15.01;94.88
15670;BME280;18524;45.190;5.732;2023-05-17T16:58:17;99144.56;;;14.92;95.18
15670;BME280;18524;45.190;5.732;2023-05-17T17:03:08;99152.03;;;14.97;93.71
15670;BME280;18524;45.190;5.732;2023-05-17T17:07:58;99149.25;;;14.98;94.49
15670;BME280;18524;45.190;5.732;2023-05-17T17:12:49;99140.34;;;14.99;95.67
15670;BME280;18524;45.190;5.732;2023-05-17T17:17:39;99141.00;;;15.01;96.17
15670;BME280;18524;45.190;5.732;2023-05-17T17:22:30;99140.84;;;15.03;94.92
15670;BME280;18524;45.190;5.732;2023-05-17T17:27:21;99136.56;;;15.02;95.08
15670;BME280;18524;45.190;5.732;2023-05-17T17:32:11;99141.78;;;14.94;97.59
15670;BME280;18524;45.190;5.732;2023-05-17T17:37:01;99137.03;;;14.97;98.95
15670;BME280;18524;45.190;5.732;2023-05-17T17:41:52;99141.00;;;15.01;100.00
15670;BME280;18524;45.190;5.732;2023-05-17T17:46:42;99144.47;;;15.02;100.00
15670;BME280;18524;45.190;5.732;2023-05-17T17:51:32;99148.09;;;15.01;99.60
15670;BME280;18524;45.190;5.732;2023-05-17T17:56:23;99147.66;;;14.88;99.93
15670;BME280;18524;45.190;5.732;2023-05-17T18:01:14;99149.47;;;14.87;99.54
15670;BME280;18524;45.190;5.732;2023-05-17T18:06:05;99152.25;;;15.04;100.00
15670;BME280;18524;45.190;5.732;2023-05-17T18:10:55;99159.06;;;14.88;100.00
15670;BME280;18524;45.190;5.732;2023-05-17T18:15:45;99154.34;;;14.82;100.00
15670;BME280;18524;45.190;5.732;2023-05-17T18:20:36;99158.81;;;14.82;100.00
15670;BME280;18524;45.190;5.732;2023-05-17T18:25:26;99163.63;;;14.86;100.00
15670;BME280;18524;45.190;5.732;2023-05-17T18:30:17;99164.19;;;14.90;100.00
15670;BME280;18524;45.190;5.732;2023-05-17T18:35:07;99163.63;;;14.86;100.00
15670;BME280;18524;45.190;5.732;2023-05-17T18:39:58;99157.44;;;14.78;100.00
15670;BME280;18524;45.190;5.732;2023-05-17T18:44:51;99159.41;;;14.76;100.00
15670;BME280;18524;45.190;5.732;2023-05-17T18:49:41;99173.34;;;14.68;100.00
15670;BME280;18524;45.190;5.732;2023-05-17T18:54:35;99176.00;;;14.68;100.00
15670;BME280;18524;45.190;5.732;2023-05-17T18:59:25;99174.47;;;14.65;100.00
15670;BME280;18524;45.190;5.732;2023-05-17T19:04:16;99179.75;;;14.65;100.00
15670;BME280;18524;45.190;5.732;2023-05-17T19:09:06;99185.25;;;14.54;100.00
15670;BME280;18524;45.190;5.732;2023-05-17T19:13:57;99182.91;;;14.51;100.00
15670;BME280;18524;45.190;5.732;2023-05-17T19:18:48;99188.59;;;14.47;100.00
15670;BME280;18524;45.190;5.732;2023-05-17T19:23:39;99191.81;;;14.50;100.00
15670;BME280;18524;45.190;5.732;2023-05-17T19:28:29;99189.94;;;14.60;100.00
15670;BME280;18524;45.190;5.732;2023-05-17T19:33:22;99198.75;;;14.51;100.00
15670;BME280;18524;45.190;5.732;2023-05-17T19:38:12;99195.69;;;14.46;100.00
15670;BME280;18524;45.190;5.732;2023-05-17T19:43:02;99202.47;;;14.49;100.00
15670;BME280;18524;45.190;5.732;2023-05-17T19:47:53;99209.53;;;14.58;100.00
15670;BME280;18524;45.190;5.732;2023-05-17T19:52:44;99207.88;;;14.57;100.00
15670;BME280;18524;45.190;5.732;2023-05-17T19:57:34;99214.16;;;14.56;100.00
15670;BME280;18524;45.190;5.732;2023-05-17T20:02:25;99218.06;;;14.52;96.78
15670;BME280;18524;45.190;5.732;2023-05-17T20:07:15;99226.81;;;14.43;93.64
15670;BME280;18524;45.190;5.732;2023-05-17T20:12:06;99227.50;;;14.45;100.00
15670;BME280;18524;45.190;5.732;2023-05-17T20:16:57;99233.75;;;14.44;92.71
15670;BME280;18524;45.190;5.732;2023-05-17T20:21:49;99229.88;;;14.38;93.38
15670;BME280;18524;45.190;5.732;2023-05-17T20:26:39;99239.16;;;14.42;93.59
15670;BME280;18524;45.190;5.732;2023-05-17T20:31:34;99236.81;;;14.39;92.33
15670;BME280;18524;45.190;5.732;2023-05-17T20:36:25;99246.25;;;14.42;90.56
15670;BME280;18524;45.190;5.732;2023-05-17T20:41:15;99241.41;;;14.37;100.00
15670;BME280;18524;45.190;5.732;2023-05-17T20:46:06;99245.59;;;14.30;100.00
15670;BME280;18524;45.190;5.732;2023-05-17T20:50:59;99240.22;;;14.12;100.00
15670;BME280;18524;45.190;5.732;2023-05-17T20:55:50;99247.59;;;14.08;100.00
15670;BME280;18524;45.190;5.732;2023-05-17T21:00:40;99252.88;;;14.08;100.00
15670;BME280;18524;45.190;5.732;2023-05-17T21:05:31;99245.25;;;14.05;100.00
15670;BME280;18524;45.190;5.732;2023-05-17T21:10:25;99247.59;;;14.08;100.00
15670;BME280;18524;45.190;5.732;2023-05-17T21:15:15;99247.06;;;14.05;100.00
15670;BME280;18524;45.190;5.732;2023-05-17T21:20:06;99245.97;;;13.98;100.00
15670;BME280;18524;45.190;5.732;2023-05-17T21:24:56;99246.94;;;13.97;100.00
15670;BME280;18524;45.190;5.732;2023-05-17T21:29:46;99245.41;;;14.14;100.00
15670;BME280;18524;45.190;5.732;2023-05-17T21:34:37;99243.44;;;14.06;100.00
15670;BME280;18524;45.190;5.732;2023-05-17T21:39:28;99249.72;;;13.95;100.00
15670;BME280;18524;45.190;5.732;2023-05-17T21:44:19;99248.59;;;13.98;100.00
15670;BME280;18524;45.190;5.732;2023-05-17T21:49:09;99234.66;;;13.78;100.00
15670;BME280;18524;45.190;5.732;2023-05-17T21:54:00;99244.19;;;13.89;100.00
15670;BME280;18524;45.190;5.732;2023-05-17T21:58:50;99254.06;;;13.87;100.00
15670;BME280;18524;45.190;5.732;2023-05-17T22:03:40;99245.31;;;13.86;100.00
15670;BME280;18524;45.190;5.732;2023-05-17T22:08:31;99245.59;;;13.83;100.00
15670;BME280;18524;45.190;5.732;2023-05-17T22:13:21;99246.56;;;13.82;100.00
15670;BME280;18524;45.190;5.732;2023-05-17T22:18:15;99245.59;;;13.73;100.00
15670;BME280;18524;45.190;5.732;2023-05-17T22:23:08;99235.88;;;13.74;100.00
15670;BME280;18524;45.190;5.732;2023-05-17T22:27:58;99242.97;;;13.83;100.00
15670;BME280;18524;45.190;5.732;2023-05-17T22:32:49;99232.56;;;13.72;100.00
15670;BME280;18524;45.190;5.732;2023-05-17T22:37:40;99229.50;;;13.67;100.00
15670;BME280;18524;45.190;5.732;2023-05-17T22:42:31;99236.72;;;13.65;100.00
15670;BME280;18524;45.190;5.732;2023-05-17T22:47:21;99236.88;;;13.54;100.00
15670;BME280;18524;45.190;5.732;2023-05-17T22:52:13;99240.91;;;13.58;100.00
15670;BME280;18524;45.190;5.732;2023-05-17T22:57:05;99226.63;;;13.51;100.00
15670;BME280;18524;45.190;5.732;2023-05-17T23:01:55;99233.56;;;13.52;100.00
15670;BME280;18524;45.190;5.732;2023-05-17T23:06:45;99230.25;;;13.40;100.00
15670;BME280;18524;45.190;5.732;2023-05-17T23:11:36;99230.38;;;13.48;100.00
15670;BME280;18524;45.190;5.732;2023-05-17T23:16:30;99231.78;;;13.42;100.00
15670;BME280;18524;45.190;5.732;2023-05-17T23:21:20;99236.22;;;13.42;100.00
15670;BME280;18524;45.190;5.732;2023-05-17T23:26:10;99236.34;;;13.50;100.00
15670;BME280;18524;45.190;5.732;2023-05-17T23:31:01;99238.72;;;13.43;100.00
15670;BME280;18524;45.190;5.732;2023-05-17T23:35:51;99234.97;;;13.46;100.00
15670;BME280;18524;45.190;5.732;2023-05-17T23:40:44;99229.97;;;13.43;100.00
15670;BME280;18524;45.190;5.732;2023-05-17T23:45:34;99225.53;;;13.43;100.00
15670;BME280;18524;45.190;5.732;2023-05-17T23:50:25;99224.00;;;13.41;100.00
15670;BME280;18524;45.190;5.732;2023-05-17T23:55:16;99224.00;;;13.31;100.00
